Main page
METAR-TAF:

METAR-TAF

Airports :

DeKalb–Peachtree Airport

Atlanta, Georgia, United States

latitude: 33-52-42N, longitude: 084-17-53W, elevation: 1000 ft

Current weather observation

The report was made 28 minutes ago, at 21:53 UTC
Wind 10 mph from the West
Temperature 64°F
Humidity 37%
Pressure 30.12 in. Hg
Visibility: 10 miles
Clear sky

METAR: KPDK 222153Z 27009KT 10SM CLR 18/03 A3012 RMK AO2 SLP198 T01830028 PNO

Time: 18:21 (22:21 UTC)

Forecast

The report was made 5 hours and 1 minutes ago, at 17:20 UTC
Forecast valid from 22 at 18 UTC to 23 at 18 UTC
Wind 5 mph from the North/Northwest
Visibility: 6 miles
Scattered clouds at a height of 6000 ft
From 23 at 0200 UTC
Wind 0 mph from the North
Visibility: 6 miles
Clear sky
From 23 at 1500 UTC
Wind 7 mph from the South/Southwest
Visibility: 6 miles
Clear sky

TAF: KPDK 221720Z 2218/2318 34004KT P6SM SCT060 FM230200 00000KT P6SM SKC FM231500 21006KT P6SM SKC

Weather observations and forecasts of more than 4000 airports (METAR and TAF reports).

The available stations are represented by yellow and red dots on the map.

Hover mouse over dot to see the name of the station.

Then click to see weather observations and forecasts.

To change the map : click on the green buttons with a black cross to zoom in, on the green button with a dash to zoom out, or on the green arrows for adjacent maps.


METAR-TAF: